Terminal Aerodrome Forecast
Issued by NWS Tuscon, AZ

Current Version | Previous Version | Text Only | Print | Product List | Glossary On
Versions: 1 2 3 4 5 6 7 8 9 10 11 12 13 14 15 16 17 18 19 20 21 22 23
000
FTUS45 KTWC 312100 AAA
TAFTUS
TAF AMD
KTUS 312126Z 3121/0118 05006KT P6SM -SHRA SCT030 OVC045
      TEMPO 3121/3124 3SM SHRA SCT010 BKN025 OVC030
     FM010200 16005KT P6SM VCSH SCT030 OVC050
     FM010700 14006KT P6SM FEW015 SCT025 BKN050=

USA.gov is the U.S. government's official web portal to all federal, state and local government web resources and services.